Time;durP1;ratioP1;P1;durP2;ratioP2;P2;SDS_P1;SDS_P2;PMS_P1;PMS_P2;Temp;Humidity;BMP_temperature;BMP_pressure;BME280_temperature;BME280_humidity;BME280_pressure;Samples;Min_cycle;Max_cycle;Signal;HPM_P1;HPM_P2
2021/07/17 00:01:41;;;;;;;8.98;7.97;;;27.50;56.10;;;;;;4299137;33;20079;-37
2021/07/17 00:04:07;;;;;;;12.35;8.70;;;27.50;56.60;;;;;;4311138;33;20543;-37
2021/07/17 00:06:34;;;;;;;9.88;8.35;;;27.60;55.60;;;;;;4298865;33;20079;-37
2021/07/17 00:09:00;;;;;;;10.07;8.10;;;27.70;55.30;;;;;;4296310;33;20067;-37
2021/07/17 00:11:27;;;;;;;8.32;7.53;;;27.80;55.10;;;;;;4269659;33;20091;-37
2021/07/17 00:13:53;;;;;;;10.80;7.65;;;27.90;54.90;;;;;;4282105;33;20528;-37
2021/07/17 00:16:26;;;;;;;12.65;8.15;;;28.00;54.60;;;;;;4282242;33;20104;-37
2021/07/17 00:18:56;;;;;;;15.50;8.52;;;28.00;54.60;;;;;;4282214;33;20104;-37
2021/07/17 00:21:23;;;;;;;8.80;7.70;;;28.10;54.70;;;;;;4282028;33;20075;-37
2021/07/17 00:23:50;;;;;;;10.23;7.90;;;28.10;54.40;;;;;;4281723;33;20064;-37
2021/07/17 00:26:16;;;;;;;9.60;8.70;;;28.10;54.30;;;;;;4267413;33;20092;-37
2021/07/17 00:28:43;;;;;;;9.48;8.40;;;28.10;54.30;;;;;;4267475;33;20133;-37
2021/07/17 00:31:09;;;;;;;13.20;8.63;;;28.00;54.40;;;;;;4281955;33;20125;-37
2021/07/17 00:33:36;;;;;;;12.68;9.00;;;28.00;54.60;;;;;;4272332;33;20567;-37
2021/07/17 00:36:03;;;;;;;12.50;8.60;;;27.90;54.80;;;;;;4260946;33;20075;-37
2021/07/17 00:38:29;;;;;;;11.38;7.68;;;27.80;55.00;;;;;;4241215;33;20176;-37
2021/07/17 00:40:56;;;;;;;11.88;7.80;;;27.90;55.20;;;;;;4241945;33;20080;-37
2021/07/17 00:43:22;;;;;;;12.75;8.57;;;27.90;54.90;;;;;;4266853;33;20071;-37
2021/07/17 00:45:49;;;;;;;11.15;8.13;;;27.90;54.80;;;;;;4270047;33;20249;-37
2021/07/17 00:48:15;;;;;;;11.12;8.55;;;28.00;54.90;;;;;;4258088;33;20080;-37
2021/07/17 00:50:42;;;;;;;9.13;8.30;;;28.00;54.80;;;;;;4270232;33;20528;-37
2021/07/17 00:53:09;;;;;;;10.80;8.60;;;28.10;54.90;;;;;;4257705;33;20057;-37
2021/07/17 00:55:38;;;;;;;10.60;8.05;;;28.10;54.60;;;;;;4258011;33;20061;-37
2021/07/17 00:58:04;;;;;;;12.37;8.95;;;28.20;54.40;;;;;;4278768;33;20087;-37
2021/07/17 01:00:31;;;;;;;13.45;8.70;;;28.20;54.10;;;;;;4272277;33;20064;-37
2021/07/17 01:03:03;;;;;;;13.13;7.70;;;28.20;53.90;;;;;;4284398;33;20068;-37
2021/07/17 01:05:30;;;;;;;8.40;7.47;;;28.30;53.90;;;;;;4272751;33;20100;-37
2021/07/17 01:07:57;;;;;;;12.93;8.23;;;28.30;53.80;;;;;;4289149;33;20067;-37
2021/07/17 01:10:24;;;;;;;9.52;8.63;;;28.40;53.60;;;;;;4339250;33;20078;-37
2021/07/17 01:12:51;;;;;;;12.30;8.73;;;28.50;53.50;;;;;;4331454;33;20463;-37
2021/07/17 01:15:18;;;;;;;11.40;7.95;;;28.50;53.40;;;;;;4330925;33;20102;-36
2021/07/17 01:17:45;;;;;;;9.23;8.35;;;28.50;53.50;;;;;;4331120;33;20463;-36
2021/07/17 01:20:15;;;;;;;11.50;8.70;;;28.50;53.40;;;;;;4331185;33;20094;-37
2021/07/17 01:22:42;;;;;;;11.68;8.55;;;28.50;53.30;;;;;;4319058;33;20074;-37
2021/07/17 01:25:23;;;;;;;10.68;7.95;;;28.60;53.40;;;;;;4344829;33;20077;-37
2021/07/17 01:27:51;;;;;;;11.02;9.23;;;28.60;53.80;;;;;;4300601;33;20095;-37
2021/07/17 01:30:21;;;;;;;10.15;8.82;;;28.70;54.00;;;;;;4312905;33;20149;-37
2021/07/17 01:32:47;;;;;;;13.07;9.40;;;28.70;54.00;;;;;;4313122;33;20154;-37
2021/07/17 01:35:14;;;;;;;14.23;8.93;;;28.70;53.90;;;;;;4312741;33;20445;-37
2021/07/17 01:37:40;;;;;;;14.07;9.52;;;28.80;54.00;;;;;;4288469;33;20060;-37
2021/07/17 01:40:10;;;;;;;14.45;9.32;;;28.90;54.00;;;;;;4312525;33;20074;-36
2021/07/17 01:42:37;;;;;;;16.90;10.77;;;29.00;54.00;;;;;;4299673;33;20508;-37
2021/07/17 01:45:08;;;;;;;12.85;9.73;;;29.00;54.00;;;;;;4312760;33;20095;-36
2021/07/17 01:47:36;;;;;;;14.95;10.95;;;29.00;54.00;;;;;;4312684;33;20199;-37
2021/07/17 01:50:08;;;;;;;10.63;9.13;;;29.10;54.10;;;;;;4300329;33;20086;-36
2021/07/17 01:52:35;;;;;;;12.95;10.05;;;29.20;53.90;;;;;;4300747;33;20261;-35
2021/07/17 01:55:09;;;;;;;16.77;11.70;;;29.20;53.70;;;;;;4300431;33;20147;-35
2021/07/17 01:57:35;;;;;;;11.45;9.15;;;29.40;53.70;;;;;;4312466;33;20100;-36
2021/07/17 02:00:02;;;;;;;11.90;9.60;;;29.50;53.40;;;;;;4329323;33;20067;-36
2021/07/17 02:02:28;;;;;;;11.60;8.93;;;29.80;53.20;;;;;;4329451;33;20069;-35
2021/07/17 02:04:55;;;;;;;10.70;8.25;;;30.00;52.60;;;;;;4316212;33;20071;-35
2021/07/17 02:07:21;;;;;;;12.20;8.65;;;30.20;52.10;;;;;;4328975;33;20518;-36
2021/07/17 02:09:47;;;;;;;8.98;8.18;;;30.30;51.60;;;;;;4330417;33;20055;-36
2021/07/17 02:12:16;;;;;;;7.90;7.12;;;30.40;51.30;;;;;;4312113;33;20078;-36
2021/07/17 02:14:42;;;;;;;8.25;7.30;;;30.50;51.10;;;;;;4300254;33;20071;-35
2021/07/17 02:17:09;;;;;;;8.95;8.05;;;30.60;50.90;;;;;;4312171;33;20090;-35
2021/07/17 02:19:35;;;;;;;10.45;8.07;;;30.70;50.80;;;;;;4312038;33;20144;-36
2021/07/17 02:22:02;;;;;;;9.20;8.23;;;30.80;50.50;;;;;;4312306;33;20130;-35
2021/07/17 02:24:29;;;;;;;9.48;8.20;;;31.00;50.20;;;;;;4312292;33;20086;-36
2021/07/17 02:26:55;;;;;;;8.82;7.93;;;31.30;49.80;;;;;;4312269;33;20513;-36
2021/07/17 02:29:22;;;;;;;10.85;7.95;;;31.50;48.90;;;;;;4312052;33;20077;-36
2021/07/17 02:31:48;;;;;;;8.25;7.45;;;31.50;48.60;;;;;;4300452;33;20063;-36
2021/07/17 02:34:14;;;;;;;8.82;7.93;;;31.60;48.30;;;;;;4312139;33;20079;-36
2021/07/17 02:36:41;;;;;;;10.15;8.25;;;31.60;48.00;;;;;;4311896;33;20063;-36
2021/07/17 02:39:08;;;;;;;7.43;6.72;;;31.70;47.90;;;;;;4312003;33;20067;-36
2021/07/17 02:41:35;;;;;;;9.35;7.82;;;31.60;47.50;;;;;;4299301;33;20539;-35
2021/07/17 02:44:02;;;;;;;8.43;7.55;;;31.60;47.80;;;;;;4287734;33;20467;-35
2021/07/17 02:46:28;;;;;;;8.70;7.25;;;31.60;47.60;;;;;;4311948;33;20509;-35
2021/07/17 02:48:55;;;;;;;8.30;7.15;;;31.70;47.40;;;;;;4317472;33;20525;-35
2021/07/17 02:51:21;;;;;;;7.78;7.07;;;31.70;47.10;;;;;;4343438;33;20067;-35
2021/07/17 02:53:47;;;;;;;13.70;9.20;;;31.70;47.10;;;;;;4330151;33;20156;-36
2021/07/17 02:56:14;;;;;;;9.43;7.72;;;31.70;47.20;;;;;;4343545;33;20085;-36
2021/07/17 02:58:40;;;;;;;8.05;7.30;;;31.80;47.30;;;;;;4343219;33;20063;-36
2021/07/17 03:01:06;;;;;;;9.23;8.32;;;32.00;46.70;;;;;;4343510;33;20538;-36
2021/07/17 03:03:33;;;;;;;9.40;7.65;;;32.00;46.30;;;;;;4343238;33;20066;-36
2021/07/17 03:05:59;;;;;;;9.95;8.40;;;32.00;46.40;;;;;;4343491;33;20078;-36
2021/07/17 03:08:26;;;;;;;9.77;8.88;;;32.10;46.50;;;;;;4343345;33;20133;-36
2021/07/17 03:10:54;;;;;;;7.65;6.95;;;32.20;46.10;;;;;;4343604;33;20066;-36
2021/07/17 03:13:20;;;;;;;8.13;7.32;;;32.30;46.10;;;;;;4343091;33;20135;-35
2021/07/17 03:15:49;;;;;;;12.07;8.10;;;32.50;45.80;;;;;;4343043;33;20054;-34
2021/07/17 03:18:17;;;;;;;10.52;7.53;;;32.60;45.50;;;;;;4330103;33;20242;-34
2021/07/17 03:20:46;;;;;;;8.32;7.40;;;32.80;45.20;;;;;;4343448;33;20062;-36
2021/07/17 03:23:13;;;;;;;7.15;6.53;;;32.90;44.90;;;;;;4343561;33;20161;-36
2021/07/17 03:25:39;;;;;;;8.10;7.00;;;33.10;44.60;;;;;;4343497;33;20051;-36
2021/07/17 03:28:06;;;;;;;9.52;8.15;;;33.20;43.90;;;;;;4305228;33;20054;-36
2021/07/17 03:30:32;;;;;;;9.18;7.75;;;33.20;44.00;;;;;;4317591;33;20155;-36
2021/07/17 03:32:58;;;;;;;8.55;7.75;;;33.00;44.00;;;;;;4342852;33;20078;-36
2021/07/17 03:35:25;;;;;;;7.55;6.85;;;32.90;44.40;;;;;;4329105;33;20168;-36
2021/07/17 03:37:51;;;;;;;7.97;7.07;;;32.90;44.60;;;;;;4329067;33;20086;-36
2021/07/17 03:40:18;;;;;;;8.05;7.40;;;33.00;44.60;;;;;;4329344;33;20092;-36
2021/07/17 03:42:44;;;;;;;8.73;7.85;;;33.20;44.30;;;;;;4342932;33;20079;-36
2021/07/17 03:45:11;;;;;;;7.45;6.85;;;33.30;44.30;;;;;;4342995;33;20541;-36
2021/07/17 03:47:37;;;;;;;8.77;7.32;;;33.50;44.10;;;;;;4342911;33;20054;-36
2021/07/17 03:50:05;;;;;;;8.02;7.43;;;33.60;43.60;;;;;;4343249;33;20238;-36
2021/07/17 03:52:31;;;;;;;7.70;7.03;;;33.90;43.20;;;;;;4317341;33;20075;-36
2021/07/17 03:54:57;;;;;;;7.82;6.93;;;34.00;42.90;;;;;;4329187;33;20185;-36
2021/07/17 03:57:24;;;;;;;8.23;7.35;;;34.10;42.80;;;;;;4342503;33;20159;-36
2021/07/17 03:59:50;;;;;;;9.05;7.60;;;34.20;42.50;;;;;;4328924;33;20108;-35
2021/07/17 04:02:17;;;;;;;7.87;6.85;;;34.30;42.30;;;;;;4325452;33;20246;-40
2021/07/17 04:04:43;;;;;;;7.75;7.05;;;34.30;42.30;;;;;;4325804;33;20082;-36
2021/07/17 04:07:10;;;;;;;8.25;7.43;;;34.30;42.20;;;;;;4304355;33;20065;-36
2021/07/17 04:09:36;;;;;;;7.65;6.95;;;34.10;42.10;;;;;;4316357;33;20097;-36
2021/07/17 04:12:03;;;;;;;8.75;7.95;;;33.90;42.30;;;;;;4304312;33;20063;-36
2021/07/17 04:14:30;;;;;;;11.25;7.65;;;33.80;42.80;;;;;;4328331;33;20078;-36
2021/07/17 04:16:56;;;;;;;7.85;7.05;;;33.70;43.10;;;;;;4316316;33;20518;-35
2021/07/17 04:19:23;;;;;;;10.25;7.32;;;33.80;43.30;;;;;;4328168;33;20087;-35
2021/07/17 04:21:49;;;;;;;10.65;7.47;;;33.90;43.00;;;;;;4328259;33;20216;-35
2021/07/17 04:24:16;;;;;;;7.50;6.80;;;34.00;42.50;;;;;;4328134;33;20457;-35
2021/07/17 04:26:42;;;;;;;9.43;7.40;;;34.00;42.60;;;;;;4328407;33;20526;-37
2021/07/17 04:29:09;;;;;;;8.10;7.28;;;34.00;42.50;;;;;;4328606;33;20179;-36
2021/07/17 04:31:35;;;;;;;9.32;8.35;;;33.90;42.80;;;;;;4316441;33;20082;-36
2021/07/17 04:34:02;;;;;;;7.80;6.97;;;33.90;42.80;;;;;;4341864;33;20535;-36
2021/07/17 04:36:32;;;;;;;8.57;6.70;;;33.90;42.90;;;;;;4345426;32;20533;-36
2021/07/17 04:38:58;;;;;;;8.05;7.25;;;33.90;42.90;;;;;;4344370;33;20110;-36
2021/07/17 04:41:25;;;;;;;9.07;8.32;;;34.00;42.70;;;;;;4343853;33;20152;-35
2021/07/17 04:43:51;;;;;;;9.55;7.75;;;34.00;43.00;;;;;;4343684;33;20129;-35
2021/07/17 04:46:18;;;;;;;8.52;7.55;;;34.10;42.90;;;;;;4345222;32;20138;-35
2021/07/17 04:48:44;;;;;;;9.13;6.95;;;34.30;42.70;;;;;;4343498;33;20527;-37
2021/07/17 04:51:10;;;;;;;14.20;8.38;;;34.70;42.50;;;;;;4345121;32;20460;-37
2021/07/17 04:53:37;;;;;;;9.50;7.45;;;34.90;41.70;;;;;;4344072;33;20159;-36
2021/07/17 04:56:04;;;;;;;9.23;7.60;;;35.10;41.00;;;;;;4315411;33;20120;-36
2021/07/17 04:58:30;;;;;;;10.73;7.25;;;35.20;41.10;;;;;;4327813;33;20102;-36
2021/07/17 05:00:57;;;;;;;8.57;7.78;;;35.30;40.90;;;;;;4327987;33;20164;-36
2021/07/17 05:03:23;;;;;;;8.23;7.45;;;35.30;40.70;;;;;;4328008;33;20089;-36
2021/07/17 05:05:50;;;;;;;8.30;7.60;;;35.30;40.70;;;;;;4315805;33;20172;-37
2021/07/17 05:08:17;;;;;;;7.82;7.05;;;35.50;40.70;;;;;;4315178;33;20491;-37
2021/07/17 05:10:43;;;;;;;8.68;7.47;;;35.60;40.30;;;;;;4328197;33;20071;-35
2021/07/17 05:13:13;;;;;;;7.82;7.03;;;35.60;40.50;;;;;;4315613;33;20147;-35
2021/07/17 05:15:40;;;;;;;12.55;7.20;;;35.70;40.60;;;;;;4315639;33;20078;-36
2021/07/17 05:18:07;;;;;;;8.32;7.05;;;35.80;40.80;;;;;;4326959;33;20074;-35
2021/07/17 05:20:34;;;;;;;8.60;6.93;;;36.20;40.00;;;;;;4315197;33;20565;-38
2021/07/17 05:23:01;;;;;;;10.40;7.50;;;36.30;39.70;;;;;;4327353;33;20077;-35
2021/07/17 05:25:28;;;;;;;9.02;7.55;;;36.50;39.50;;;;;;4315473;33;20528;-36
2021/07/17 05:27:54;;;;;;;9.20;7.85;;;36.60;39.10;;;;;;4315384;33;20083;-35
2021/07/17 05:30:21;;;;;;;9.10;8.32;;;36.70;38.90;;;;;;4327203;33;20606;-37
2021/07/17 05:32:47;;;;;;;9.30;7.45;;;36.70;38.90;;;;;;4324879;33;20079;-37
2021/07/17 05:35:14;;;;;;;8.02;7.22;;;36.80;38.90;;;;;;4313255;33;20082;-35
2021/07/17 05:37:40;;;;;;;8.43;7.15;;;36.80;38.60;;;;;;4313060;33;20059;-36
2021/07/17 05:40:08;;;;;;;8.27;7.43;;;36.80;38.80;;;;;;4312593;33;20095;-36
2021/07/17 05:42:35;;;;;;;9.40;7.87;;;36.90;38.70;;;;;;4312774;33;20098;-36
2021/07/17 05:45:01;;;;;;;7.90;7.20;;;37.00;39.00;;;;;;4312379;33;20176;-36
2021/07/17 05:47:29;;;;;;;8.38;7.57;;;37.20;39.00;;;;;;4312496;33;20067;-36
2021/07/17 05:49:55;;;;;;;7.90;7.30;;;37.60;38.40;;;;;;4312658;33;20075;-36
2021/07/17 05:52:21;;;;;;;9.13;8.27;;;37.80;37.80;;;;;;4306248;33;20070;-37
2021/07/17 05:54:48;;;;;;;9.35;8.45;;;38.00;37.60;;;;;;4330705;33;20062;-38
2021/07/17 05:57:14;;;;;;;9.80;8.90;;;38.00;37.70;;;;;;4331191;33;20066;-37
2021/07/17 05:59:41;;;;;;;9.68;8.65;;;37.90;37.80;;;;;;4330815;33;20082;-37
2021/07/17 06:02:08;;;;;;;9.57;8.75;;;37.80;37.80;;;;;;4330645;33;20075;-36
2021/07/17 06:04:34;;;;;;;8.23;7.53;;;37.80;37.60;;;;;;4330394;33;20082;-38
2021/07/17 06:07:01;;;;;;;9.45;7.78;;;37.70;37.80;;;;;;4330650;33;20070;-36
2021/07/17 06:09:27;;;;;;;12.30;7.32;;;37.80;37.90;;;;;;4343847;33;20071;-36
2021/07/17 06:11:53;;;;;;;8.55;7.75;;;38.00;37.60;;;;;;4344244;33;20093;-36
2021/07/17 06:14:20;;;;;;;8.30;7.50;;;38.10;37.10;;;;;;4343790;33;20058;-37
2021/07/17 06:16:47;;;;;;;8.10;7.40;;;38.20;37.20;;;;;;4343788;33;20094;-36
2021/07/17 06:19:13;;;;;;;8.48;7.65;;;38.20;37.00;;;;;;4330337;33;20075;-37
2021/07/17 06:21:40;;;;;;;12.50;8.45;;;38.10;37.00;;;;;;4343769;33;20077;-37
2021/07/17 06:24:07;;;;;;;9.23;7.22;;;38.00;37.10;;;;;;4330257;33;20071;-38
2021/07/17 06:26:33;;;;;;;7.32;6.72;;;37.80;36.90;;;;;;4343660;33;20150;-38
2021/07/17 06:29:00;;;;;;;12.75;7.70;;;37.60;37.00;;;;;;4343956;33;20083;-37
2021/07/17 06:31:26;;;;;;;7.28;6.53;;;37.50;37.40;;;;;;4318054;33;20086;-38
2021/07/17 06:33:53;;;;;;;8.32;6.93;;;37.40;37.00;;;;;;4343529;33;20491;-37
2021/07/17 06:36:19;;;;;;;11.30;7.12;;;37.30;36.80;;;;;;4343973;33;20071;-37
2021/07/17 06:38:48;;;;;;;8.35;7.07;;;37.20;36.70;;;;;;4330478;33;20146;-37
2021/07/17 06:41:15;;;;;;;7.82;6.00;;;37.20;36.80;;;;;;4330276;33;20103;-37
2021/07/17 06:43:41;;;;;;;5.35;4.85;;;37.30;36.60;;;;;;4343914;33;20073;-37
2021/07/17 06:46:08;;;;;;;8.93;6.50;;;37.40;36.00;;;;;;4343823;33;20083;-37
2021/07/17 06:48:34;;;;;;;6.80;6.20;;;37.60;36.40;;;;;;4343919;33;20063;-38
2021/07/17 06:51:00;;;;;;;8.30;5.97;;;37.80;35.50;;;;;;4329578;33;20063;-37
2021/07/17 06:53:27;;;;;;;6.32;5.82;;;38.00;35.30;;;;;;4317454;33;20063;-37
2021/07/17 06:55:53;;;;;;;6.70;6.20;;;38.20;35.40;;;;;;4297039;33;20597;-36
2021/07/17 06:58:20;;;;;;;7.95;5.90;;;38.40;35.30;;;;;;4316530;33;20102;-38
2021/07/17 07:00:46;;;;;;;7.85;6.35;;;38.50;34.90;;;;;;4326468;33;20067;-38
2021/07/17 07:03:13;;;;;;;6.82;6.22;;;38.60;35.00;;;;;;4326502;33;20063;-38
2021/07/17 07:05:39;;;;;;;6.75;6.07;;;38.80;34.70;;;;;;4326104;33;20090;-37
2021/07/17 07:08:06;;;;;;;6.70;6.20;;;38.90;34.20;;;;;;4325972;33;20070;-37
2021/07/17 07:10:32;;;;;;;6.85;6.20;;;39.00;34.00;;;;;;4326645;33;20495;-37
2021/07/17 07:12:58;;;;;;;6.90;5.43;;;39.10;33.90;;;;;;4325855;33;20109;-37
2021/07/17 07:15:26;;;;;;;6.78;5.95;;;39.30;33.70;;;;;;4326249;33;20076;-38
2021/07/17 07:17:52;;;;;;;6.68;4.87;;;39.50;33.20;;;;;;4325982;33;20086;-38
2021/07/17 07:20:19;;;;;;;8.75;4.70;;;39.60;32.70;;;;;;4311166;33;20056;-38
2021/07/17 07:22:45;;;;;;;7.65;4.85;;;39.70;32.30;;;;;;4311264;33;20086;-38
2021/07/17 07:25:12;;;;;;;7.12;5.95;;;39.90;31.70;;;;;;4311008;33;20646;-38
2021/07/17 07:27:39;;;;;;;6.68;4.70;;;40.00;31.80;;;;;;4299368;33;20614;-37
2021/07/17 07:30:07;;;;;;;5.12;4.62;;;40.10;31.50;;;;;;4311365;33;20094;-37
2021/07/17 07:32:33;;;;;;;4.68;4.35;;;40.20;31.80;;;;;;4304691;33;20075;-37
2021/07/17 07:35:00;;;;;;;5.82;4.20;;;40.20;31.30;;;;;;4340615;33;20145;-37
2021/07/17 07:37:27;;;;;;;5.40;4.95;;;40.40;31.60;;;;;;4340376;33;20078;-37
2021/07/17 07:39:54;;;;;;;5.07;4.37;;;40.50;30.80;;;;;;4340245;33;20168;-37
2021/07/17 07:42:23;;;;;;;7.55;4.37;;;40.40;30.10;;;;;;4340594;33;20082;-37
2021/07/17 07:44:50;;;;;;;4.62;4.18;;;40.20;30.10;;;;;;4328720;33;20081;-37
2021/07/17 07:47:17;;;;;;;4.25;3.97;;;40.10;29.40;;;;;;4341065;33;20123;-39
2021/07/17 07:49:43;;;;;;;5.70;4.12;;;39.80;29.60;;;;;;4340532;33;20196;-38
2021/07/17 07:52:10;;;;;;;5.95;4.72;;;39.50;30.80;;;;;;4342700;33;20141;-39
2021/07/17 07:54:37;;;;;;;6.00;5.50;;;39.50;31.40;;;;;;4342956;32;20095;-37
2021/07/17 07:57:04;;;;;;;5.78;5.28;;;39.60;32.20;;;;;;4344711;32;20075;-38
2021/07/17 07:59:31;;;;;;;6.43;5.72;;;39.70;32.50;;;;;;4357668;32;20072;-39
2021/07/17 08:01:57;;;;;;;5.87;4.87;;;39.70;32.50;;;;;;4325227;33;20086;-40
2021/07/17 08:04:23;;;;;;;6.15;5.55;;;39.70;32.40;;;;;;4325816;33;20090;-39
2021/07/17 08:06:50;;;;;;;5.43;5.03;;;39.80;32.80;;;;;;4325947;33;20074;-38
2021/07/17 08:09:16;;;;;;;6.05;5.15;;;39.90;32.30;;;;;;4325225;33;20570;-38
2021/07/17 08:11:43;;;;;;;8.20;5.28;;;40.10;32.20;;;;;;4325565;33;20180;-38
2021/07/17 08:14:09;;;;;;;5.65;5.12;;;40.30;32.40;;;;;;4325594;33;20078;-38
2021/07/17 08:16:35;;;;;;;6.50;5.22;;;40.40;31.20;;;;;;4325302;33;20619;-38
2021/07/17 08:19:02;;;;;;;5.87;5.47;;;40.60;30.00;;;;;;4325605;33;20757;-38
2021/07/17 08:21:28;;;;;;;5.78;5.37;;;40.50;30.10;;;;;;4313637;33;20070;-38
2021/07/17 08:23:55;;;;;;;5.80;5.30;;;40.50;28.90;;;;;;4325862;33;20090;-38
2021/07/17 08:26:22;;;;;;;5.53;5.03;;;40.30;29.30;;;;;;4313643;33;20067;-38
2021/07/17 08:28:48;;;;;;;5.50;5.10;;;40.20;29.70;;;;;;4325444;33;20178;-38
2021/07/17 08:31:15;;;;;;;5.60;5.07;;;40.10;29.00;;;;;;4325779;33;20135;-38
2021/07/17 08:33:42;;;;;;;6.75;5.07;;;40.10;29.30;;;;;;4325304;33;20170;-38
2021/07/17 08:36:08;;;;;;;6.53;5.37;;;40.20;29.20;;;;;;4312873;33;20130;-38
2021/07/17 08:38:35;;;;;;;5.50;5.03;;;40.10;28.70;;;;;;4330479;32;20612;-38
2021/07/17 08:41:02;;;;;;;5.75;5.25;;;39.90;29.10;;;;;;4343586;32;20058;-38
2021/07/17 08:43:28;;;;;;;5.45;5.05;;;39.80;30.00;;;;;;4343540;32;20062;-38
2021/07/17 08:45:54;;;;;;;5.50;5.10;;;39.70;28.80;;;;;;4343663;32;20142;-38
2021/07/17 08:48:21;;;;;;;6.15;5.55;;;39.60;28.50;;;;;;4343632;32;20105;-38
2021/07/17 08:50:48;;;;;;;5.53;5.12;;;39.50;29.60;;;;;;4357221;32;20073;-38
2021/07/17 08:53:18;;;;;;;5.53;5.12;;;39.50;30.10;;;;;;4360030;32;20093;-38
2021/07/17 08:55:44;;;;;;;7.20;5.43;;;39.60;30.40;;;;;;4359973;32;20535;-38
2021/07/17 08:58:11;;;;;;;6.07;5.53;;;39.90;30.40;;;;;;4351144;32;20511;-38
2021/07/17 09:00:40;;;;;;;5.57;5.15;;;40.10;30.40;;;;;;4343405;33;20105;-37
2021/07/17 09:03:10;;;;;;;5.80;5.30;;;40.40;30.60;;;;;;4331484;33;20062;-37
2021/07/17 09:05:42;;;;;;;7.30;5.43;;;40.40;31.30;;;;;;4344834;33;20082;-38
2021/07/17 09:08:20;;;;;;;8.70;5.53;;;40.40;31.20;;;;;;4344969;33;20058;-38
2021/07/17 09:10:49;;;;;;;6.35;5.75;;;40.60;30.80;;;;;;4286302;33;20115;-38
2021/07/17 09:13:20;;;;;;;5.55;5.03;;;40.80;30.40;;;;;;4286863;33;20119;-38
2021/07/17 09:15:59;;;;;;;6.18;5.47;;;41.10;30.00;;;;;;4298164;33;20072;-38
2021/07/17 09:18:34;;;;;;;5.43;5.03;;;41.40;29.70;;;;;;4298765;33;20084;-38
2021/07/17 09:21:22;;;;;;;6.03;5.20;;;41.80;29.50;;;;;;4298405;33;20114;-36
2021/07/17 09:23:54;;;;;;;5.85;5.45;;;42.20;29.40;;;;;;4298365;33;20487;-38
2021/07/17 09:26:26;;;;;;;9.27;5.70;;;42.50;28.60;;;;;;4286278;33;20495;-38
2021/07/17 09:29:06;;;;;;;5.97;5.43;;;42.70;28.70;;;;;;4298765;33;20468;-38
2021/07/17 09:31:38;;;;;;;8.18;4.60;;;42.90;28.00;;;;;;4298403;33;20547;-38
2021/07/17 09:34:11;;;;;;;5.80;5.03;;;43.10;27.70;;;;;;4297918;33;20155;-38
2021/07/17 09:37:00;;;;;;;5.45;4.95;;;43.10;27.40;;;;;;4298393;33;20170;-37
2021/07/17 09:39:33;;;;;;;6.12;5.62;;;43.30;27.70;;;;;;4298140;33;20061;-37
2021/07/17 09:42:06;;;;;;;6.03;5.53;;;43.30;27.40;;;;;;4325077;33;20078;-38
2021/07/17 09:44:33;;;;;;;8.70;5.25;;;43.30;27.70;;;;;;4312307;33;20081;-37
2021/07/17 09:47:01;;;;;;;7.82;6.18;;;43.30;27.60;;;;;;4288178;33;20099;-38
2021/07/17 09:49:28;;;;;;;7.07;5.22;;;43.40;27.70;;;;;;4300275;33;20078;-38
2021/07/17 09:52:11;;;;;;;5.65;5.22;;;43.60;27.00;;;;;;4312858;33;20075;-38
2021/07/17 09:55:12;;;;;;;7.37;5.82;;;43.90;26.50;;;;;;4311990;33;20528;-38
2021/07/17 09:57:39;;;;;;;5.03;4.62;;;44.10;27.10;;;;;;4317927;33;20060;-37
2021/07/17 10:00:13;;;;;;;5.53;5.12;;;44.20;27.00;;;;;;4302869;33;20063;-38
2021/07/17 10:02:40;;;;;;;6.25;5.12;;;44.20;26.80;;;;;;4326531;33;20243;-38
2021/07/17 10:05:11;;;;;;;6.10;5.53;;;44.10;26.30;;;;;;4327293;33;20073;-38
2021/07/17 10:07:37;;;;;;;5.30;4.90;;;43.90;25.50;;;;;;4314629;33;20090;-38
2021/07/17 10:10:05;;;;;;;5.22;4.72;;;43.70;25.80;;;;;;4314890;33;20093;-38
2021/07/17 10:12:58;;;;;;;5.72;5.28;;;43.50;25.50;;;;;;4326738;33;20542;-38
2021/07/17 10:15:29;;;;;;;4.62;4.37;;;43.70;25.80;;;;;;4324198;33;20059;-38
2021/07/17 10:17:57;;;;;;;5.50;4.87;;;44.00;25.20;;;;;;4304065;33;20101;-38
2021/07/17 10:20:23;;;;;;;5.05;4.62;;;44.20;25.10;;;;;;4302707;33;20166;-37
2021/07/17 10:22:49;;;;;;;5.35;4.93;;;44.40;24.90;;;;;;4315545;33;20102;-38
2021/07/17 10:25:16;;;;;;;7.35;5.25;;;44.20;24.90;;;;;;4318107;33;20084;-38
2021/07/17 10:27:42;;;;;;;5.72;5.22;;;44.20;25.30;;;;;;4330309;33;20076;-38
2021/07/17 10:30:11;;;;;;;5.50;5.10;;;44.10;24.70;;;;;;4344026;33;20114;-38
2021/07/17 10:32:37;;;;;;;5.70;5.22;;;44.00;25.00;;;;;;4343714;33;20086;-38
2021/07/17 10:35:05;;;;;;;7.43;6.28;;;43.70;25.10;;;;;;4343789;33;20081;-38
2021/07/17 10:37:33;;;;;;;6.47;4.87;;;43.40;24.90;;;;;;4343378;33;20145;-38
2021/07/17 10:40:13;;;;;;;5.40;4.70;;;43.20;25.10;;;;;;4330366;33;20094;-37
2021/07/17 10:42:44;;;;;;;6.03;5.47;;;43.20;25.10;;;;;;4329937;33;20058;-37
2021/07/17 10:45:11;;;;;;;5.53;5.03;;;43.30;24.90;;;;;;4330737;33;20074;-38
2021/07/17 10:47:39;;;;;;;5.18;4.68;;;43.30;25.20;;;;;;4343793;33;20180;-38
2021/07/17 10:50:08;;;;;;;6.50;4.97;;;43.40;25.40;;;;;;4343582;33;20071;-37
2021/07/17 10:52:45;;;;;;;6.07;4.68;;;43.40;25.70;;;;;;4330036;33;20067;-37
2021/07/17 10:55:36;;;;;;;8.02;4.80;;;43.40;26.00;;;;;;4329615;33;20563;-38
2021/07/17 10:58:23;;;;;;;5.90;5.50;;;43.30;25.30;;;;;;4319162;33;20075;-38
2021/07/17 11:00:51;;;;;;;5.40;4.85;;;42.90;25.90;;;;;;4321085;33;20177;-38
2021/07/17 11:03:32;;;;;;;5.90;5.15;;;42.50;26.30;;;;;;4326382;33;20105;-38
2021/07/17 11:06:33;;;;;;;5.62;5.05;;;42.30;26.20;;;;;;4326407;33;20063;-37
2021/07/17 11:09:24;;;;;;;6.18;5.62;;;42.10;26.40;;;;;;4326241;33;20561;-37
2021/07/17 11:11:50;;;;;;;5.87;5.37;;;41.90;27.10;;;;;;4322161;33;20507;-37
2021/07/17 11:14:20;;;;;;;6.37;5.78;;;41.80;27.00;;;;;;4325825;33;20103;-37
2021/07/17 11:16:50;;;;;;;6.25;5.22;;;41.70;27.40;;;;;;4325590;33;20181;-37
2021/07/17 11:19:24;;;;;;;7.20;5.90;;;41.50;27.30;;;;;;4326301;33;20065;-38
2021/07/17 11:21:51;;;;;;;7.18;5.97;;;41.20;27.70;;;;;;4325732;33;20074;-38
2021/07/17 11:24:20;;;;;;;6.40;5.85;;;41.00;28.10;;;;;;4308371;33;20471;-38
2021/07/17 11:26:46;;;;;;;8.65;7.85;;;40.80;27.50;;;;;;4296846;33;20227;-37
2021/07/17 11:29:14;;;;;;;6.93;6.15;;;40.70;27.90;;;;;;4296955;33;20068;-38
2021/07/17 11:31:51;;;;;;;7.18;5.93;;;40.70;27.70;;;;;;4296640;33;20080;-37
2021/07/17 11:34:17;;;;;;;12.13;5.85;;;40.80;27.00;;;;;;4296664;33;20143;-37
2021/07/17 11:36:45;;;;;;;7.45;6.10;;;41.10;27.00;;;;;;4311134;33;20063;-38
2021/07/17 11:39:14;;;;;;;6.45;5.95;;;41.30;26.90;;;;;;4311296;33;20063;-38
2021/07/17 11:41:40;;;;;;;6.00;5.50;;;41.60;26.70;;;;;;4299277;33;20160;-38
2021/07/17 11:44:07;;;;;;;7.82;6.30;;;41.80;26.50;;;;;;4310973;33;20563;-38
2021/07/17 11:46:33;;;;;;;5.93;5.53;;;41.80;26.20;;;;;;4311653;33;20596;-39
2021/07/17 11:49:01;;;;;;;5.65;5.15;;;41.80;26.30;;;;;;4311316;33;20089;-37
2021/07/17 11:51:28;;;;;;;6.18;5.68;;;41.90;26.30;;;;;;4311065;33;20067;-38
2021/07/17 11:53:58;;;;;;;9.75;5.82;;;41.90;26.20;;;;;;4310716;33;20805;-37
2021/07/17 11:56:24;;;;;;;6.70;6.20;;;41.80;26.40;;;;;;4324473;33;20111;-37
2021/07/17 11:59:09;;;;;;;7.70;6.78;;;41.80;26.20;;;;;;4325232;33;20153;-37
2021/07/17 12:01:35;;;;;;;7.32;6.20;;;42.10;26.30;;;;;;4284243;33;20064;-37
2021/07/17 12:04:02;;;;;;;6.22;5.68;;;42.30;26.10;;;;;;4296666;33;20147;-36
2021/07/17 12:06:28;;;;;;;7.28;6.57;;;42.40;25.70;;;;;;4296420;33;20484;-37
2021/07/17 12:08:55;;;;;;;6.22;5.68;;;42.30;25.70;;;;;;4296617;33;20064;-37
2021/07/17 12:11:21;;;;;;;7.25;5.35;;;42.10;26.10;;;;;;4284438;33;20071;-37
2021/07/17 12:13:47;;;;;;;5.45;5.03;;;42.10;26.30;;;;;;4296034;33;20153;-37
2021/07/17 12:16:25;;;;;;;6.10;5.30;;;42.20;26.20;;;;;;4272289;33;20083;-37
2021/07/17 12:18:57;;;;;;;5.47;4.97;;;42.30;26.20;;;;;;4295931;33;20598;-37
2021/07/17 12:21:24;;;;;;;6.32;5.72;;;42.30;26.30;;;;;;4296065;33;20078;-37
2021/07/17 12:23:57;;;;;;;5.70;5.05;;;42.40;26.00;;;;;;4284408;33;20079;-37
2021/07/17 12:26:23;;;;;;;8.52;6.12;;;42.40;26.00;;;;;;4285929;33;20570;-37
2021/07/17 12:28:50;;;;;;;6.62;6.03;;;42.30;25.90;;;;;;4301772;33;20485;-38
2021/07/17 12:31:17;;;;;;;6.22;5.72;;;42.20;26.10;;;;;;4301382;33;20158;-38
2021/07/17 12:33:46;;;;;;;6.22;5.82;;;42.30;26.10;;;;;;4344253;33;20151;-38
2021/07/17 12:36:17;;;;;;;6.25;5.75;;;42.30;26.00;;;;;;4319929;33;20070;-37
2021/07/17 12:38:52;;;;;;;9.40;6.12;;;42.30;26.10;;;;;;4345689;33;20052;-37
2021/07/17 12:41:31;;;;;;;7.10;6.25;;;42.30;26.10;;;;;;4345443;33;20070;-46
2021/07/17 12:44:06;;;;;;;7.35;6.30;;;42.30;26.30;;;;;;4345764;33;20090;-37
2021/07/17 12:46:34;;;;;;;8.25;6.40;;;42.20;26.10;;;;;;4331355;33;20067;-37
2021/07/17 12:49:20;;;;;;;9.07;6.10;;;42.10;26.40;;;;;;4345302;33;20225;-37
2021/07/17 12:51:53;;;;;;;6.78;6.28;;;42.00;26.10;;;;;;4345192;33;20633;-37